Time;durP1;ratioP1;P1;durP2;ratioP2;P2;SDS_P1;SDS_P2;PMS_P1;PMS_P2;Temp;Humidity;BMP_temperature;BMP_pressure;BME280_temperature;BME280_humidity;BME280_pressure;Samples;Min_cycle;Max_cycle;Signal;HPM_P1;HPM_P2
2023/07/31 00:01:46;;;;;;;6.35;1.75;;;19.40;92.00;;;;;;5069394;28;20025;-84
2023/07/31 00:04:12;;;;;;;7.55;1.70;;;19.40;92.40;;;;;;5059964;28;20013;-83
2023/07/31 00:06:37;;;;;;;3.22;1.73;;;19.40;92.10;;;;;;5073773;28;20034;-83
2023/07/31 00:09:03;;;;;;;3.88;1.35;;;19.40;92.10;;;;;;5074851;28;20035;-84
2023/07/31 00:11:28;;;;;;;4.53;1.50;;;19.40;92.10;;;;;;5071233;28;20031;-83
2023/07/31 00:13:54;;;;;;;4.47;1.67;;;19.30;92.00;;;;;;5063743;28;20070;-84
2023/07/31 00:16:20;;;;;;;2.65;1.42;;;19.30;92.00;;;;;;5070674;28;20013;-84
2023/07/31 00:18:45;;;;;;;5.68;1.73;;;19.30;92.00;;;;;;5067023;28;20029;-84
2023/07/31 00:21:11;;;;;;;7.05;1.60;;;19.40;92.00;;;;;;5070950;28;20025;-83
2023/07/31 00:23:36;;;;;;;3.63;1.60;;;19.30;92.00;;;;;;5076740;28;20487;-83
2023/07/31 00:26:02;;;;;;;4.30;1.52;;;19.40;92.00;;;;;;5072129;28;20028;-84
2023/07/31 00:28:28;;;;;;;6.55;1.70;;;19.30;92.10;;;;;;5069291;28;20558;-83
2023/07/31 00:30:54;;;;;;;2.55;1.27;;;19.30;92.00;;;;;;5062989;28;20035;-84
2023/07/31 00:33:19;;;;;;;2.92;1.50;;;19.40;92.00;;;;;;5058811;28;20017;-83
2023/07/31 00:35:45;;;;;;;5.38;1.25;;;19.40;92.00;;;;;;5065232;28;20355;-84
2023/07/31 00:38:11;;;;;;;5.22;1.58;;;19.30;92.00;;;;;;5066983;28;20029;-84
2023/07/31 00:40:37;;;;;;;2.38;1.30;;;19.30;92.00;;;;;;5072436;28;20073;-84
2023/07/31 00:43:03;;;;;;;2.03;1.38;;;19.30;92.00;;;;;;5064970;28;20020;-84
2023/07/31 00:45:29;;;;;;;3.60;1.40;;;19.30;92.00;;;;;;5067182;28;20036;-82
2023/07/31 00:47:55;;;;;;;3.22;1.30;;;19.30;92.00;;;;;;5060430;28;20434;-83
2023/07/31 00:50:24;;;;;;;3.58;1.35;;;19.30;92.00;;;;;;5066464;28;20075;-84
2023/07/31 00:52:49;;;;;;;3.47;1.52;;;19.30;92.30;;;;;;5099600;28;20024;-84
2023/07/31 00:55:15;;;;;;;7.95;1.63;;;19.30;92.00;;;;;;5067406;28;20685;-84
2023/07/31 00:57:42;;;;;;;2.15;1.45;;;19.30;92.00;;;;;;5099640;28;20444;-83
2023/07/31 01:00:08;;;;;;;3.38;1.65;;;19.30;92.00;;;;;;5070295;28;20013;-84
2023/07/31 01:02:35;;;;;;;3.47;1.58;;;19.30;92.00;;;;;;5071053;28;20053;-83
2023/07/31 01:05:02;;;;;;;2.92;1.45;;;19.30;91.90;;;;;;5065836;28;20021;-84
2023/07/31 01:08:02;;;;;;;2.58;1.23;;;19.30;91.90;;;;;;5069748;28;20296;-83
2023/07/31 01:10:34;;;;;;;7.45;1.58;;;19.30;91.90;;;;;;5061948;28;20071;-84
2023/07/31 01:13:00;;;;;;;2.33;1.25;;;19.30;91.90;;;;;;5070162;28;20032;-83
2023/07/31 01:15:26;;;;;;;3.58;1.73;;;19.30;91.90;;;;;;5071153;28;20429;-84
2023/07/31 01:17:51;;;;;;;2.88;1.33;;;19.30;91.90;;;;;;5071477;28;20059;-84
2023/07/31 01:20:26;;;;;;;2.28;1.08;;;19.30;91.90;;;;;;5099699;27;20040;-84
2023/07/31 01:22:54;;;;;;;3.80;1.50;;;19.30;91.90;;;;;;5062274;28;20029;-84
2023/07/31 01:25:45;;;;;;;2.70;1.38;;;19.20;91.90;;;;;;5065237;28;20110;-84
2023/07/31 01:28:19;;;;;;;4.45;1.67;;;19.30;91.90;;;;;;5067362;28;20120;-83
2023/07/31 01:30:48;;;;;;;3.67;1.63;;;19.30;91.90;;;;;;5065843;28;20043;-84
2023/07/31 01:33:15;;;;;;;4.15;2.03;;;19.20;91.90;;;;;;5068957;28;20027;-83
2023/07/31 01:35:44;;;;;;;9.00;2.10;;;19.20;91.90;;;;;;5072202;28;20755;-83
2023/07/31 01:38:10;;;;;;;4.93;1.63;;;19.20;91.80;;;;;;5072860;28;20012;-84
2023/07/31 01:40:36;;;;;;;3.05;1.42;;;19.30;91.90;;;;;;5102479;27;20074;-84
2023/07/31 01:43:01;;;;;;;6.20;1.63;;;19.20;91.80;;;;;;5066252;28;20024;-83
2023/07/31 01:45:33;;;;;;;6.65;1.77;;;19.30;91.80;;;;;;5065666;28;20013;-83
2023/07/31 01:47:58;;;;;;;2.88;1.83;;;19.20;91.80;;;;;;5074117;28;21472;-83
2023/07/31 01:50:24;;;;;;;4.93;1.67;;;19.30;91.80;;;;;;5107761;27;20064;-82
2023/07/31 01:52:50;;;;;;;4.82;1.73;;;19.20;91.80;;;;;;5073345;28;20127;-84
2023/07/31 01:55:15;;;;;;;2.80;1.45;;;19.30;91.80;;;;;;5072121;28;20027;-83
2023/07/31 01:57:41;;;;;;;3.75;1.60;;;19.20;91.80;;;;;;5063911;28;20058;-83
2023/07/31 02:00:07;;;;;;;5.35;1.80;;;19.20;91.80;;;;;;5069383;28;20027;-83
2023/07/31 02:02:33;;;;;;;2.97;1.30;;;19.30;91.80;;;;;;5069754;28;20499;-83
2023/07/31 02:04:59;;;;;;;3.60;1.75;;;19.30;91.80;;;;;;5077562;28;20063;-84
2023/07/31 02:07:24;;;;;;;3.13;1.75;;;19.30;91.80;;;;;;5107029;27;20026;-84
2023/07/31 02:09:50;;;;;;;5.85;1.77;;;19.20;91.80;;;;;;5069854;28;20044;-84
2023/07/31 02:12:15;;;;;;;8.63;1.77;;;19.20;91.80;;;;;;5061587;28;20025;-83
2023/07/31 02:14:41;;;;;;;2.75;1.40;;;19.20;91.80;;;;;;5070219;28;20040;-84
2023/07/31 02:17:07;;;;;;;6.65;1.67;;;19.20;91.70;;;;;;5072232;28;20033;-83
2023/07/31 02:19:32;;;;;;;2.85;1.55;;;19.20;91.70;;;;;;5100992;27;20087;-84
2023/07/31 02:21:58;;;;;;;3.22;1.55;;;19.20;91.70;;;;;;5102847;28;20027;-84
2023/07/31 02:24:24;;;;;;;3.97;1.27;;;19.20;91.70;;;;;;5067582;28;20021;-83
2023/07/31 02:26:50;;;;;;;6.18;1.85;;;19.20;91.70;;;;;;5074263;28;20043;-84
2023/07/31 02:29:15;;;;;;;2.13;1.10;;;19.20;91.70;;;;;;5067238;28;20429;-83
2023/07/31 02:31:41;;;;;;;2.83;0.95;;;19.20;91.70;;;;;;5066543;28;20056;-84
2023/07/31 02:34:06;;;;;;;3.58;1.70;;;19.20;91.70;;;;;;5066907;28;20377;-85
2023/07/31 02:36:32;;;;;;;2.47;1.35;;;19.20;91.70;;;;;;5058976;28;20021;-84
2023/07/31 02:38:58;;;;;;;2.95;1.60;;;19.20;91.70;;;;;;5062683;28;20067;-84
2023/07/31 02:41:23;;;;;;;2.88;1.70;;;19.20;92.00;;;;;;5063638;28;20017;-84
2023/07/31 02:43:49;;;;;;;6.53;1.40;;;19.20;91.60;;;;;;5096359;28;20492;-84
2023/07/31 02:46:14;;;;;;;4.85;1.48;;;19.20;91.60;;;;;;5067531;28;20020;-84
2023/07/31 02:48:40;;;;;;;2.83;1.90;;;19.20;91.60;;;;;;5101037;27;20027;-84
2023/07/31 02:51:06;;;;;;;4.45;1.52;;;19.20;91.60;;;;;;5063597;28;20569;-83
2023/07/31 02:53:31;;;;;;;5.13;1.65;;;19.10;91.60;;;;;;5070059;28;20028;-84
2023/07/31 02:55:57;;;;;;;6.38;1.73;;;19.20;91.60;;;;;;5063093;28;20029;-84
2023/07/31 02:58:22;;;;;;;5.70;2.08;;;19.20;91.60;;;;;;5064390;28;20425;-84
2023/07/31 03:00:48;;;;;;;5.88;1.35;;;19.20;91.60;;;;;;5059607;28;20039;-83
2023/07/31 03:03:13;;;;;;;2.72;1.40;;;19.20;91.50;;;;;;5060389;28;20025;-84
2023/07/31 03:05:39;;;;;;;2.60;1.55;;;19.20;91.50;;;;;;5063385;28;20098;-84
2023/07/31 03:08:05;;;;;;;5.07;1.50;;;19.20;91.50;;;;;;5076247;28;20127;-84
2023/07/31 03:10:31;;;;;;;4.55;1.50;;;19.20;91.50;;;;;;5069538;28;20025;-84
2023/07/31 03:12:56;;;;;;;3.15;1.50;;;19.20;91.50;;;;;;5072540;28;20066;-84
2023/07/31 03:15:22;;;;;;;2.17;1.50;;;19.10;91.50;;;;;;5068531;28;20070;-85
2023/07/31 03:17:50;;;;;;;10.85;1.83;;;19.20;91.50;;;;;;5062884;28;20112;-83
2023/07/31 03:20:16;;;;;;;1.83;1.30;;;19.10;91.40;;;;;;5069709;28;20120;-83
2023/07/31 03:22:42;;;;;;;2.20;1.45;;;19.10;91.40;;;;;;5069804;28;20028;-84
2023/07/31 03:25:09;;;;;;;3.63;1.73;;;19.10;91.40;;;;;;5069635;28;20089;-84
2023/07/31 03:27:35;;;;;;;2.50;1.40;;;19.10;91.40;;;;;;5071184;28;20025;-83
2023/07/31 03:30:01;;;;;;;5.45;1.70;;;19.10;91.40;;;;;;5070228;28;20385;-84
2023/07/31 03:32:26;;;;;;;4.18;1.50;;;19.10;91.40;;;;;;5069562;28;20056;-84
2023/07/31 03:34:52;;;;;;;3.20;1.45;;;19.10;91.40;;;;;;5062488;28;20032;-84
2023/07/31 03:37:17;;;;;;;5.75;1.58;;;19.10;91.40;;;;;;5062519;28;20421;-84
2023/07/31 03:39:43;;;;;;;6.40;1.92;;;19.10;91.40;;;;;;5063441;28;20025;-83
2023/07/31 03:42:08;;;;;;;2.47;1.48;;;19.10;91.40;;;;;;5064931;28;20021;-81
2023/07/31 03:44:34;;;;;;;3.58;1.63;;;19.10;91.40;;;;;;5097624;27;20020;-84
2023/07/31 03:47:00;;;;;;;1.98;1.25;;;19.10;91.40;;;;;;5065479;28;20028;-84
2023/07/31 03:49:25;;;;;;;3.50;1.20;;;19.10;91.40;;;;;;5068363;28;20036;-84
2023/07/31 03:51:51;;;;;;;3.33;1.33;;;19.10;91.40;;;;;;5063655;28;20515;-82
2023/07/31 03:54:16;;;;;;;1.88;1.20;;;19.10;91.40;;;;;;5070403;28;20032;-84
2023/07/31 03:56:42;;;;;;;2.40;1.30;;;19.10;91.40;;;;;;5067181;28;20416;-84
2023/07/31 03:59:07;;;;;;;4.47;1.75;;;19.10;91.40;;;;;;5070728;28;20017;-84
2023/07/31 04:01:33;;;;;;;7.15;1.67;;;19.10;91.40;;;;;;5070615;28;20047;-84
2023/07/31 04:03:59;;;;;;;5.28;1.75;;;19.80;91.60;;;;;;5068424;28;20495;-84
2023/07/31 04:06:24;;;;;;;4.78;1.70;;;19.10;91.40;;;;;;5065756;28;20079;-83
2023/07/31 04:08:50;;;;;;;3.50;1.20;;;19.10;91.40;;;;;;5063513;28;20541;-83
2023/07/31 04:11:15;;;;;;;8.82;1.75;;;19.10;91.30;;;;;;5067372;28;20029;-84
2023/07/31 04:13:41;;;;;;;3.00;1.40;;;19.10;91.30;;;;;;5096082;28;20021;-84
2023/07/31 04:16:07;;;;;;;3.22;1.42;;;19.10;91.30;;;;;;5065597;28;20099;-84
2023/07/31 04:18:32;;;;;;;2.55;1.40;;;19.10;91.40;;;;;;5097830;27;20108;-84
2023/07/31 04:20:58;;;;;;;2.60;1.60;;;19.10;91.30;;;;;;5101229;27;20028;-84
2023/07/31 04:23:25;;;;;;;3.65;1.30;;;19.10;91.40;;;;;;5071450;28;20024;-84
2023/07/31 04:25:53;;;;;;;4.60;1.63;;;19.10;91.40;;;;;;5070744;28;20120;-84
2023/07/31 04:28:19;;;;;;;2.25;1.50;;;19.10;91.40;;;;;;5097525;28;20034;-84
2023/07/31 04:30:45;;;;;;;5.32;1.58;;;19.10;91.40;;;;;;5064134;28;20032;-84
2023/07/31 04:33:10;;;;;;;4.20;1.38;;;19.10;91.40;;;;;;5071109;28;20430;-85
2023/07/31 04:35:36;;;;;;;1.77;1.30;;;19.10;91.40;;;;;;5069446;28;20496;-84
2023/07/31 04:38:02;;;;;;;6.32;1.33;;;19.10;91.40;;;;;;5065584;28;20021;-83
2023/07/31 04:40:27;;;;;;;3.63;1.30;;;19.10;91.40;;;;;;5099915;28;20470;-84
2023/07/31 04:42:53;;;;;;;2.05;1.40;;;19.10;91.40;;;;;;5065776;28;20082;-85
2023/07/31 04:45:19;;;;;;;2.67;1.60;;;19.10;91.40;;;;;;5065415;28;20021;-84
2023/07/31 04:47:44;;;;;;;3.65;1.40;;;19.10;91.40;;;;;;5065160;28;20029;-84
2023/07/31 04:50:10;;;;;;;6.97;1.77;;;19.10;91.40;;;;;;5071487;28;20033;-85
2023/07/31 04:52:35;;;;;;;6.63;2.05;;;19.00;91.20;;;;;;5099956;28;20021;-85
2023/07/31 04:55:01;;;;;;;4.47;1.60;;;19.10;91.20;;;;;;5068635;28;20021;-84
2023/07/31 04:57:27;;;;;;;1.52;1.35;;;19.10;91.20;;;;;;5068843;28;20028;-84
2023/07/31 04:59:52;;;;;;;2.78;1.52;;;19.10;91.20;;;;;;5069360;28;20060;-84
2023/07/31 05:02:18;;;;;;;2.50;1.35;;;19.10;91.30;;;;;;5070572;28;20048;-84
2023/07/31 05:04:43;;;;;;;3.88;1.75;;;19.10;91.30;;;;;;5074465;28;20043;-84
2023/07/31 05:07:09;;;;;;;2.97;1.38;;;19.10;91.30;;;;;;5104511;27;20120;-85
2023/07/31 05:09:35;;;;;;;4.10;1.70;;;19.10;91.30;;;;;;5105304;27;20550;-85
2023/07/31 05:12:00;;;;;;;2.85;1.10;;;19.10;91.30;;;;;;5063203;28;20025;-85
2023/07/31 05:14:26;;;;;;;3.97;1.50;;;19.10;91.30;;;;;;5073427;28;20148;-85
2023/07/31 05:16:52;;;;;;;9.15;1.65;;;19.10;91.40;;;;;;5062472;28;20021;-84
2023/07/31 05:19:18;;;;;;;4.03;1.58;;;19.10;91.30;;;;;;5072417;28;20024;-84
2023/07/31 05:21:43;;;;;;;4.43;1.30;;;19.10;91.40;;;;;;5066974;28;20024;-84
2023/07/31 05:24:10;;;;;;;3.78;1.52;;;19.10;91.40;;;;;;5061192;28;20028;-84
2023/07/31 05:26:35;;;;;;;2.85;1.30;;;19.10;91.40;;;;;;5073338;28;20028;-85
2023/07/31 05:29:01;;;;;;;2.13;1.27;;;19.10;91.40;;;;;;5061899;28;20163;-85
2023/07/31 05:31:26;;;;;;;3.50;1.75;;;19.10;91.40;;;;;;5067472;28;20016;-84
2023/07/31 05:33:52;;;;;;;4.60;1.45;;;19.10;91.40;;;;;;5061037;28;20034;-84
2023/07/31 05:36:18;;;;;;;6.47;1.48;;;19.10;91.50;;;;;;5069778;28;20031;-85
2023/07/31 05:38:44;;;;;;;2.40;1.25;;;19.10;91.50;;;;;;5073310;28;20027;-85
2023/07/31 05:41:11;;;;;;;4.43;1.60;;;19.10;91.50;;;;;;5071226;28;20021;-85
2023/07/31 05:43:37;;;;;;;3.85;1.55;;;19.10;91.50;;;;;;5100234;27;20032;-84
2023/07/31 05:46:03;;;;;;;4.90;1.48;;;19.10;91.50;;;;;;5065940;28;20036;-84
2023/07/31 05:48:28;;;;;;;5.63;1.65;;;19.10;91.50;;;;;;5072189;28;20020;-85
2023/07/31 05:50:54;;;;;;;3.53;1.40;;;19.10;91.60;;;;;;5064329;28;20046;-84
2023/07/31 05:53:19;;;;;;;5.00;1.30;;;19.10;91.60;;;;;;5068144;28;20032;-85
2023/07/31 05:55:45;;;;;;;7.47;1.50;;;19.10;91.60;;;;;;5066529;28;20021;-84
2023/07/31 05:58:11;;;;;;;14.82;1.60;;;19.10;91.60;;;;;;5069447;28;20025;-83
2023/07/31 06:00:36;;;;;;;5.97;1.65;;;19.10;91.60;;;;;;5065317;28;20217;-84
2023/07/31 06:03:02;;;;;;;4.10;1.77;;;19.10;91.60;;;;;;5067790;28;20041;-84
2023/07/31 06:05:29;;;;;;;2.85;1.80;;;19.20;91.70;;;;;;5064442;28;20369;-85
2023/07/31 06:07:55;;;;;;;3.05;1.52;;;19.10;91.70;;;;;;5068491;28;20081;-84
2023/07/31 06:10:21;;;;;;;2.75;1.38;;;19.20;91.70;;;;;;5073902;28;20497;-84
2023/07/31 06:12:47;;;;;;;2.47;1.30;;;19.20;91.70;;;;;;5068742;28;20074;-85
2023/07/31 06:15:12;;;;;;;5.82;1.73;;;19.20;91.80;;;;;;5069995;28;20025;-85
2023/07/31 06:17:38;;;;;;;5.40;1.70;;;19.20;91.80;;;;;;5068972;28;20033;-80
2023/07/31 06:20:05;;;;;;;3.08;1.58;;;19.20;91.70;;;;;;5065624;28;20158;-78
2023/07/31 06:22:31;;;;;;;2.42;1.70;;;18.90;90.50;;;;;;5064226;28;20028;-79
2023/07/31 06:24:57;;;;;;;2.28;1.25;;;18.70;90.30;;;;;;5063220;28;20020;-79
2023/07/31 06:27:23;;;;;;;2.30;1.50;;;18.50;90.60;;;;;;5070561;28;20021;-79
2023/07/31 06:29:48;;;;;;;3.20;1.45;;;18.50;90.80;;;;;;5067943;28;20048;-79
2023/07/31 06:32:14;;;;;;;2.63;1.45;;;18.50;91.10;;;;;;5068009;28;20036;-80
2023/07/31 06:34:40;;;;;;;9.40;1.65;;;18.50;91.00;;;;;;5066257;28;20485;-79
2023/07/31 06:37:06;;;;;;;4.47;1.70;;;18.40;90.90;;;;;;5065785;28;20103;-80
2023/07/31 06:39:31;;;;;;;10.95;1.55;;;18.40;91.20;;;;;;5066064;28;20100;-79
2023/07/31 06:41:57;;;;;;;1.50;1.00;;;18.40;91.20;;;;;;5065529;28;20108;-79
2023/07/31 06:44:22;;;;;;;5.03;1.55;;;18.40;91.20;;;;;;5070550;28;20020;-79
2023/07/31 06:46:48;;;;;;;5.95;1.77;;;18.30;91.10;;;;;;5065061;28;20033;-79
2023/07/31 06:49:15;;;;;;;6.30;1.83;;;18.30;91.10;;;;;;5069754;28;20025;-79
2023/07/31 06:51:41;;;;;;;4.10;1.52;;;18.20;91.10;;;;;;5067338;28;20047;-78
2023/07/31 06:54:08;;;;;;;3.78;1.55;;;18.30;91.30;;;;;;5070850;28;20544;-79
2023/07/31 06:56:33;;;;;;;10.63;1.35;;;18.30;91.30;;;;;;5066732;28;20039;-79
2023/07/31 06:58:59;;;;;;;1.88;1.45;;;18.20;91.40;;;;;;5065538;28;20037;-79
2023/07/31 07:01:25;;;;;;;3.65;1.55;;;18.20;91.50;;;;;;5065803;28;20435;-79
2023/07/31 07:03:51;;;;;;;5.57;1.65;;;18.20;91.50;;;;;;5061916;28;20086;-79
2023/07/31 07:06:22;;;;;;;4.15;1.60;;;18.20;91.50;;;;;;5066129;28;20024;-79
2023/07/31 07:08:48;;;;;;;4.00;1.52;;;18.20;91.60;;;;;;5065995;28;20045;-79
2023/07/31 07:11:13;;;;;;;2.17;1.35;;;18.10;91.50;;;;;;5065972;28;20116;-79
2023/07/31 07:13:42;;;;;;;4.10;1.42;;;18.10;91.50;;;;;;5064427;28;20025;-79
2023/07/31 07:16:10;;;;;;;2.35;1.50;;;18.40;91.70;;;;;;5063918;28;20545;-79
2023/07/31 07:18:35;;;;;;;3.15;1.73;;;18.10;91.60;;;;;;5067416;28;20028;-79
2023/07/31 07:21:02;;;;;;;8.85;1.88;;;18.00;91.50;;;;;;5062869;28;20055;-79
2023/07/31 07:23:28;;;;;;;3.80;1.48;;;18.10;91.50;;;;;;5065417;28;20107;-79
2023/07/31 07:25:53;;;;;;;2.30;1.55;;;18.10;91.40;;;;;;5066036;28;20078;-79
2023/07/31 07:28:19;;;;;;;5.40;1.27;;;18.10;91.40;;;;;;5064151;28;20036;-79
2023/07/31 07:30:45;;;;;;;3.47;1.65;;;18.10;91.50;;;;;;5063214;28;20025;-79
2023/07/31 07:33:12;;;;;;;3.28;1.40;;;18.10;91.70;;;;;;5066184;28;20037;-78
2023/07/31 07:35:37;;;;;;;4.22;1.70;;;18.00;91.60;;;;;;5059065;28;20020;-79
2023/07/31 07:38:09;;;;;;;3.78;1.50;;;18.10;91.60;;;;;;5059966;28;20027;-79
2023/07/31 07:40:41;;;;;;;4.25;1.90;;;18.10;91.70;;;;;;5066015;28;20054;-79
2023/07/31 07:43:07;;;;;;;3.80;1.55;;;18.10;91.80;;;;;;5060152;28;20136;-79
2023/07/31 07:45:32;;;;;;;3.55;1.60;;;18.20;91.80;;;;;;5063785;28;20115;-79
2023/07/31 07:47:59;;;;;;;5.25;1.58;;;18.10;92.00;;;;;;5069437;28;20020;-79
2023/07/31 07:50:25;;;;;;;4.57;1.55;;;18.20;91.80;;;;;;5057135;28;20040;-79
2023/07/31 07:52:51;;;;;;;8.70;1.92;;;18.20;91.60;;;;;;5061727;28;20528;-79
2023/07/31 07:55:16;;;;;;;1.70;1.52;;;18.20;91.60;;;;;;5067058;28;20103;-79
2023/07/31 07:57:44;;;;;;;4.10;1.80;;;18.30;91.70;;;;;;5065970;28;20027;-80
2023/07/31 08:00:10;;;;;;;4.45;1.58;;;18.30;91.80;;;;;;5062656;28;20040;-78
2023/07/31 08:02:36;;;;;;;3.38;1.55;;;18.30;91.60;;;;;;5060096;28;20737;-79
2023/07/31 08:05:01;;;;;;;5.05;1.95;;;18.30;91.60;;;;;;5065912;28;20017;-91
2023/07/31 08:07:27;;;;;;;5.80;1.88;;;18.40;91.80;;;;;;5055843;28;20021;-91
2023/07/31 08:09:52;;;;;;;4.07;1.65;;;18.40;91.80;;;;;;5058508;28;20029;-91
2023/07/31 08:12:18;;;;;;;4.72;1.60;;;18.40;91.80;;;;;;5063643;28;20025;-90
2023/07/31 08:14:43;;;;;;;2.53;1.48;;;18.40;91.70;;;;;;5061091;28;20017;-92
2023/07/31 08:17:09;;;;;;;5.10;1.52;;;18.40;91.60;;;;;;5068374;28;20025;-90
2023/07/31 08:19:35;;;;;;;4.40;1.50;;;18.40;91.40;;;;;;5060914;28;20169;-90
2023/07/31 08:22:00;;;;;;;7.13;1.63;;;18.40;91.60;;;;;;5053889;28;20028;-90
2023/07/31 08:24:26;;;;;;;3.20;1.63;;;18.50;91.50;;;;;;5058213;28;20110;-87
2023/07/31 08:26:51;;;;;;;6.47;1.73;;;18.50;91.60;;;;;;5055754;28;20465;-91
2023/07/31 08:32:39;;;;;;;5.18;1.80;;;18.50;91.50;;;;;;5060990;28;20139;-90
2023/07/31 08:35:05;;;;;;;4.80;1.98;;;18.50;91.30;;;;;;5060762;28;20032;-90
2023/07/31 08:37:31;;;;;;;6.40;1.65;;;18.50;91.60;;;;;;5065195;28;20033;-87
2023/07/31 08:39:58;;;;;;;5.13;1.50;;;18.50;91.20;;;;;;5098804;28;20017;-89
2023/07/31 08:42:25;;;;;;;6.13;1.90;;;18.60;91.30;;;;;;5064168;28;20440;-91
2023/07/31 08:44:50;;;;;;;4.25;1.70;;;18.70;91.10;;;;;;5101416;28;20028;-90
2023/07/31 08:47:17;;;;;;;5.70;1.60;;;18.70;91.00;;;;;;5065737;28;20050;-93
2023/07/31 08:49:43;;;;;;;4.82;1.88;;;18.70;90.90;;;;;;5061573;28;20065;-91
2023/07/31 08:52:08;;;;;;;3.55;1.70;;;18.80;90.90;;;;;;5095543;28;20049;-92
2023/07/31 08:54:34;;;;;;;7.60;1.83;;;18.80;90.90;;;;;;5056299;28;20524;-89
2023/07/31 08:57:00;;;;;;;2.78;1.58;;;18.90;90.90;;;;;;5058094;28;20017;-89
2023/07/31 08:59:30;;;;;;;4.88;2.05;;;18.90;90.80;;;;;;5101032;28;20028;-92
2023/07/31 09:02:01;;;;;;;7.82;1.95;;;18.90;90.90;;;;;;5076367;28;20051;-91
2023/07/31 09:04:27;;;;;;;3.75;1.65;;;19.00;90.80;;;;;;5064874;28;20033;-91
2023/07/31 09:06:59;;;;;;;11.88;1.60;;;18.90;90.70;;;;;;5069806;28;20020;-91
2023/07/31 09:09:25;;;;;;;3.20;1.63;;;18.90;90.80;;;;;;5060740;28;20523;-92
2023/07/31 09:11:52;;;;;;;2.40;1.38;;;19.00;90.70;;;;;;5073946;28;20021;-91
2023/07/31 09:14:18;;;;;;;2.30;1.30;;;19.10;90.80;;;;;;5097693;28;20091;-89
2023/07/31 09:16:59;;;;;;;4.13;1.30;;;19.10;91.00;;;;;;5073465;28;20093;-92
2023/07/31 09:19:33;;;;;;;3.75;1.10;;;19.20;90.90;;;;;;5062120;28;20021;-92
2023/07/31 09:21:59;;;;;;;3.33;1.83;;;19.20;91.40;;;;;;5068618;28;20040;-93
2023/07/31 09:24:27;;;;;;;2.92;1.52;;;19.20;90.70;;;;;;5066744;28;20286;-90
2023/07/31 09:26:58;;;;;;;3.70;2.00;;;19.20;90.40;;;;;;5100748;28;20024;-90
2023/07/31 09:29:26;;;;;;;3.13;1.52;;;19.20;90.50;;;;;;5064845;28;20078;-91
2023/07/31 09:31:52;;;;;;;3.95;1.92;;;19.20;91.00;;;;;;5066957;28;20028;-91
2023/07/31 09:34:19;;;;;;;6.05;1.60;;;19.20;90.80;;;;;;5073321;28;20070;-93
2023/07/31 09:36:49;;;;;;;4.07;2.05;;;19.30;90.80;;;;;;5065721;28;20055;-91
2023/07/31 09:39:17;;;;;;;3.15;1.48;;;19.30;90.60;;;;;;5065177;28;20028;-91
2023/07/31 09:41:46;;;;;;;2.58;1.15;;;19.20;90.60;;;;;;5064429;28;20028;-89
2023/07/31 09:44:11;;;;;;;3.85;2.08;;;19.30;90.20;;;;;;5063949;28;20025;-89
2023/07/31 09:46:38;;;;;;;5.95;1.10;;;19.30;90.20;;;;;;5097965;28;20028;-86
2023/07/31 09:49:10;;;;;;;1.40;1.20;;;19.20;90.00;;;;;;5069365;28;20021;-87
2023/07/31 09:51:40;;;;;;;9.10;1.50;;;19.30;89.40;;;;;;5071639;28;20032;-89
2023/07/31 09:54:11;;;;;;;;;;;19.30;89.60;;;;;;5100541;27;20033;-89
2023/07/31 09:56:45;;;;;;;9.18;2.30;;;19.30;89.10;;;;;;5069645;28;19908;-92
2023/07/31 09:59:15;;;;;;;7.93;1.88;;;19.30;89.20;;;;;;5069180;28;20081;-88
2023/07/31 10:01:43;;;;;;;10.38;2.97;;;19.30;89.50;;;;;;5070044;28;20029;-88
2023/07/31 10:04:13;;;;;;;33.67;15.25;;;19.30;89.20;;;;;;5068549;28;20021;-90
2023/07/31 10:06:40;;;;;;;14.75;5.13;;;19.30;89.60;;;;;;5072205;28;20492;-89
2023/07/31 10:09:08;;;;;;;6.90;3.17;;;19.30;89.50;;;;;;5102083;27;20024;-88
2023/07/31 10:11:43;;;;;;;14.07;4.60;;;19.30;89.50;;;;;;5102980;27;20518;-88
2023/07/31 10:14:10;;;;;;;3.30;1.95;;;19.30;88.80;;;;;;5073357;28;20028;-90
2023/07/31 10:16:38;;;;;;;8.43;1.95;;;19.40;89.00;;;;;;5067431;28;20028;-89
2023/07/31 10:19:05;;;;;;;7.88;1.77;;;19.50;88.50;;;;;;5064660;28;20033;-92
2023/07/31 10:21:34;;;;;;;5.65;1.85;;;19.60;88.80;;;;;;5098067;27;20074;-91
2023/07/31 10:24:02;;;;;;;10.70;2.10;;;19.60;88.90;;;;;;5103713;27;20037;-90
2023/07/31 10:26:29;;;;;;;5.57;1.35;;;19.70;89.60;;;;;;5068231;28;20029;-88
2023/07/31 10:28:55;;;;;;;4.95;1.73;;;19.70;90.00;;;;;;5100264;27;20020;-89
2023/07/31 10:31:22;;;;;;;6.30;1.92;;;19.70;89.50;;;;;;5065079;28;20033;-91
2023/07/31 10:33:48;;;;;;;8.95;1.77;;;19.70;88.60;;;;;;5096926;27;20033;-95
2023/07/31 10:36:17;;;;;;;5.97;1.92;;;19.70;88.00;;;;;;5058836;28;20060;-93
2023/07/31 10:38:43;;;;;;;2.08;1.40;;;19.60;87.80;;;;;;5070563;28;20038;-91
2023/07/31 10:41:14;;;;;;;8.88;1.85;;;19.60;88.10;;;;;;5105893;27;20027;-94
2023/07/31 10:43:40;;;;;;;4.15;1.88;;;19.70;89.00;;;;;;5071996;28;20127;-95
2023/07/31 10:46:12;;;;;;;10.20;2.15;;;19.70;89.40;;;;;;5074592;28;20521;-92
2023/07/31 10:48:41;;;;;;;5.40;1.80;;;19.80;89.10;;;;;;5065832;28;20624;-95
2023/07/31 10:51:09;;;;;;;18.42;2.20;;;19.80;89.10;;;;;;5070276;28;20060;-91
2023/07/31 10:53:35;;;;;;;6.53;1.90;;;19.80;89.20;;;;;;5066460;28;20119;-88
2023/07/31 10:56:09;;;;;;;2.20;1.60;;;19.80;89.60;;;;;;5108518;27;20112;-90
2023/07/31 10:58:36;;;;;;;10.80;1.83;;;19.80;88.50;;;;;;5067667;28;20057;-89
2023/07/31 11:01:03;;;;;;;7.90;2.00;;;19.80;88.80;;;;;;5077655;28;20012;-92
2023/07/31 11:03:49;;;;;;;2.72;1.55;;;19.90;89.60;;;;;;5061686;28;20116;-89
2023/07/31 11:06:16;;;;;;;6.70;1.75;;;19.90;88.50;;;;;;5059988;28;20067;-93
2023/07/31 11:08:44;;;;;;;5.72;2.10;;;20.00;88.50;;;;;;5056654;28;20029;-94
2023/07/31 11:11:14;;;;;;;7.05;2.03;;;20.00;88.90;;;;;;5061286;28;20028;-89
2023/07/31 11:13:54;;;;;;;21.35;1.70;;;20.00;87.60;;;;;;5068496;28;20037;-89
2023/07/31 11:16:24;;;;;;;17.38;2.35;;;19.90;88.00;;;;;;5071636;28;20504;-88
2023/07/31 11:18:51;;;;;;;;;;;19.90;88.20;;;;;;5070445;28;20032;-90
2023/07/31 11:21:24;;;;;;;5.00;1.35;;;19.90;86.90;;;;;;5060948;28;19926;-92
2023/07/31 11:23:57;;;;;;;3.00;1.33;;;19.90;87.00;;;;;;5056507;28;20036;-92
2023/07/31 11:26:24;;;;;;;7.10;1.80;;;19.80;86.90;;;;;;5101685;27;20074;-92
2023/07/31 11:28:50;;;;;;;4.07;1.92;;;19.80;86.80;;;;;;5067942;28;20037;-89
2023/07/31 11:31:17;;;;;;;6.45;2.13;;;19.90;87.40;;;;;;5074850;28;20027;-91
2023/07/31 11:33:44;;;;;;;10.40;1.88;;;20.00;87.00;;;;;;5065944;28;20111;-89
2023/07/31 11:36:20;;;;;;;3.20;1.75;;;19.90;87.60;;;;;;5092630;27;20048;-91
2023/07/31 11:38:46;;;;;;;4.22;1.42;;;20.00;87.70;;;;;;5059249;28;20051;-93
2023/07/31 11:41:14;;;;;;;3.58;1.85;;;20.10;89.30;;;;;;5062474;28;20021;-89
2023/07/31 11:43:40;;;;;;;3.08;1.85;;;20.20;89.30;;;;;;5065015;28;20623;-94
2023/07/31 11:46:06;;;;;;;10.90;2.00;;;20.20;87.60;;;;;;5104644;27;20024;-94
2023/07/31 11:48:37;;;;;;;2.88;1.55;;;20.30;87.50;;;;;;5061199;28;20024;-95
2023/07/31 11:51:05;;;;;;;3.63;1.90;;;20.30;87.10;;;;;;5097858;27;20024;-91
2023/07/31 11:53:47;;;;;;;3.70;1.60;;;20.10;86.80;;;;;;5099054;27;20022;-92
2023/07/31 11:56:19;;;;;;;3.80;2.13;;;20.10;86.20;;;;;;5102186;27;20021;-95
2023/07/31 11:58:47;;;;;;;5.57;1.55;;;20.00;86.50;;;;;;5096168;27;20047;-95
2023/07/31 12:01:15;;;;;;;4.40;1.88;;;19.90;86.60;;;;;;5062984;28;20066;-88
2023/07/31 12:03:42;;;;;;;6.70;1.95;;;19.90;86.50;;;;;;5101542;27;20054;-92
2023/07/31 12:06:08;;;;;;;10.35;2.20;;;19.90;86.10;;;;;;5072277;28;20024;-90
2023/07/31 12:08:34;;;;;;;3.92;1.90;;;19.80;86.10;;;;;;5068935;28;20025;-93
2023/07/31 12:11:05;;;;;;;7.72;2.10;;;19.80;85.30;;;;;;5103683;27;20040;-92
2023/07/31 12:13:32;;;;;;;5.18;1.75;;;19.80;86.70;;;;;;5097162;28;20039;-92
2023/07/31 12:16:03;;;;;;;4.50;1.58;;;19.70;85.90;;;;;;5069545;28;20036;-92
2023/07/31 12:18:32;;;;;;;;;;;19.80;86.60;;;;;;5072642;28;20028;-91
2023/07/31 12:21:00;;;;;;;8.63;1.95;;;19.70;86.70;;;;;;5067533;28;20405;-91
2023/07/31 12:23:28;;;;;;;15.07;1.83;;;19.70;86.90;;;;;;5096085;28;20021;-91
2023/07/31 12:26:20;;;;;;;9.07;1.85;;;19.80;86.90;;;;;;5103591;27;20027;-91
2023/07/31 12:28:47;;;;;;;5.93;1.90;;;19.80;86.30;;;;;;5067715;28;20044;-91
2023/07/31 12:31:21;;;;;;;7.43;1.83;;;19.80;86.80;;;;;;5057921;28;20040;-91
2023/07/31 12:33:49;;;;;;;7.13;1.65;;;19.80;86.70;;;;;;5104075;27;20086;-93
2023/07/31 12:36:17;;;;;;;6.68;2.13;;;19.80;86.20;;;;;;5101141;27;20067;-88
2023/07/31 12:38:43;;;;;;;9.90;2.03;;;19.70;86.00;;;;;;5065010;28;20032;-87
2023/07/31 12:41:09;;;;;;;3.30;1.52;;;19.80;86.10;;;;;;5074443;28;20025;-88
2023/07/31 12:43:37;;;;;;;5.82;2.22;;;19.70;86.20;;;;;;5098140;28;20078;-92
2023/07/31 12:46:03;;;;;;;3.97;1.75;;;19.70;87.10;;;;;;5098743;28;20039;-92
2023/07/31 12:48:29;;;;;;;7.05;2.03;;;19.70;86.90;;;;;;5072430;28;20020;-88
2023/07/31 12:50:55;;;;;;;5.40;2.30;;;19.70;86.00;;;;;;5066290;28;20032;-87